sensor_id;sensor_type;location;lat;lon;timestamp;pressure;altitude;pressure_sealevel;temperature;humidity
49827;BME280;35715;51.570;6.036;2023-02-13T00:02:02;103596.25;;;8.21;85.54
49827;BME280;35715;51.570;6.036;2023-02-13T00:04:28;103592.00;;;8.14;86.07
49827;BME280;35715;51.570;6.036;2023-02-13T00:09:21;103588.34;;;8.12;86.39
49827;BME280;35715;51.570;6.036;2023-02-13T00:11:47;103585.03;;;8.06;86.50
49827;BME280;35715;51.570;6.036;2023-02-13T00:14:12;103587.25;;;8.10;86.39
49827;BME280;35715;51.570;6.036;2023-02-13T00:19:05;103582.50;;;8.21;85.97
49827;BME280;35715;51.570;6.036;2023-02-13T00:21:31;103580.47;;;8.25;85.84
49827;BME280;35715;51.570;6.036;2023-02-13T00:23:56;103582.84;;;8.31;85.37
49827;BME280;35715;51.570;6.036;2023-02-13T00:26:21;103587.81;;;8.29;85.17
49827;BME280;35715;51.570;6.036;2023-02-13T00:28:46;103580.47;;;8.32;85.21
49827;BME280;35715;51.570;6.036;2023-02-13T00:31:13;103577.88;;;8.32;85.06
49827;BME280;35715;51.570;6.036;2023-02-13T00:33:38;103587.63;;;8.35;84.84
49827;BME280;35715;51.570;6.036;2023-02-13T00:36:08;103582.84;;;8.31;85.08
49827;BME280;35715;51.570;6.036;2023-02-13T00:38:34;103589.31;;;8.34;84.90
49827;BME280;35715;51.570;6.036;2023-02-13T00:40:59;103588.91;;;8.39;84.75
49827;BME280;35715;51.570;6.036;2023-02-13T00:43:25;103586.94;;;8.43;84.84
49827;BME280;35715;51.570;6.036;2023-02-13T00:45:55;103597.63;;;8.46;84.49
49827;BME280;35715;51.570;6.036;2023-02-13T00:48:22;103579.63;;;8.46;84.47
49827;BME280;35715;51.570;6.036;2023-02-13T00:50:48;103573.53;;;8.46;84.60
49827;BME280;35715;51.570;6.036;2023-02-13T00:53:13;103589.09;;;8.40;84.61
49827;BME280;35715;51.570;6.036;2023-02-13T00:58:14;103574.47;;;8.46;84.81
49827;BME280;35715;51.570;6.036;2023-02-13T01:00:40;103579.03;;;8.49;84.57
49827;BME280;35715;51.570;6.036;2023-02-13T01:03:05;103583.28;;;8.48;84.42
49827;BME280;35715;51.570;6.036;2023-02-13T01:05:31;103574.84;;;8.49;84.28
49827;BME280;35715;51.570;6.036;2023-02-13T01:07:56;103585.31;;;8.51;84.47
49827;BME280;35715;51.570;6.036;2023-02-13T01:10:22;103582.38;;;8.48;84.61
49827;BME280;35715;51.570;6.036;2023-02-13T01:12:48;103581.44;;;8.47;84.66
49827;BME280;35715;51.570;6.036;2023-02-13T01:15:13;103586.56;;;8.47;84.63
49827;BME280;35715;51.570;6.036;2023-02-13T01:17:55;103592.47;;;8.46;84.56
49827;BME280;35715;51.570;6.036;2023-02-13T01:20:21;103585.84;;;8.48;84.52
49827;BME280;35715;51.570;6.036;2023-02-13T01:22:47;103587.53;;;8.48;84.58
49827;BME280;35715;51.570;6.036;2023-02-13T01:25:12;103574.66;;;8.48;84.60
49827;BME280;35715;51.570;6.036;2023-02-13T01:27:44;103581.25;;;8.46;84.37
49827;BME280;35715;51.570;6.036;2023-02-13T01:30:10;103582.91;;;8.45;84.58
49827;BME280;35715;51.570;6.036;2023-02-13T01:32:38;103577.75;;;8.45;84.72
49827;BME280;35715;51.570;6.036;2023-02-13T01:35:03;103582.19;;;8.46;84.68
49827;BME280;35715;51.570;6.036;2023-02-13T01:37:28;103583.81;;;8.46;84.86
49827;BME280;35715;51.570;6.036;2023-02-13T01:39:54;103575.69;;;8.43;85.13
49827;BME280;35715;51.570;6.036;2023-02-13T01:42:21;103580.66;;;8.41;85.03
49827;BME280;35715;51.570;6.036;2023-02-13T01:44:54;103574.59;;;8.41;85.13
49827;BME280;35715;51.570;6.036;2023-02-13T01:49:49;103568.69;;;8.42;85.38
49827;BME280;35715;51.570;6.036;2023-02-13T01:52:15;103580.16;;;8.44;85.41
49827;BME280;35715;51.570;6.036;2023-02-13T01:54:41;103570.94;;;8.46;85.34
49827;BME280;35715;51.570;6.036;2023-02-13T01:57:12;103582.19;;;8.46;85.07
49827;BME280;35715;51.570;6.036;2023-02-13T01:59:41;103579.94;;;8.42;85.35
49827;BME280;35715;51.570;6.036;2023-02-13T02:02:08;103575.50;;;8.41;85.37
49827;BME280;35715;51.570;6.036;2023-02-13T02:04:35;103575.50;;;8.41;85.30
49827;BME280;35715;51.570;6.036;2023-02-13T02:07:04;103573.84;;;8.42;85.07
49827;BME280;35715;51.570;6.036;2023-02-13T02:09:31;103567.25;;;8.37;85.27
49827;BME280;35715;51.570;6.036;2023-02-13T02:11:59;103563.22;;;8.31;85.78
49827;BME280;35715;51.570;6.036;2023-02-13T02:14:26;103561.19;;;8.29;85.80
49827;BME280;35715;51.570;6.036;2023-02-13T02:16:51;103567.22;;;8.29;85.60
49827;BME280;35715;51.570;6.036;2023-02-13T02:40:25;103549.72;;;7.91;87.61
49827;BME280;35715;51.570;6.036;2023-02-13T02:53:54;103549.66;;;7.62;91.62
49827;BME280;35715;51.570;6.036;2023-02-13T02:58:52;103548.72;;;7.54;92.29
49827;BME280;35715;51.570;6.036;2023-02-13T03:01:39;103547.97;;;7.48;92.69
49827;BME280;35715;51.570;6.036;2023-02-13T03:04:27;103542.78;;;7.41;93.32
49827;BME280;35715;51.570;6.036;2023-02-13T03:07:14;103542.78;;;7.41;93.13
49827;BME280;35715;51.570;6.036;2023-02-13T03:09:40;103541.88;;;7.40;92.31
49827;BME280;35715;51.570;6.036;2023-02-13T03:12:28;103539.31;;;7.40;92.23
49827;BME280;35715;51.570;6.036;2023-02-13T03:15:12;103545.16;;;7.39;93.04
49827;BME280;35715;51.570;6.036;2023-02-13T03:17:46;103546.81;;;7.39;93.13
49827;BME280;35715;51.570;6.036;2023-02-13T03:23:25;103542.59;;;7.39;91.07
49827;BME280;35715;51.570;6.036;2023-02-13T03:26:17;103544.97;;;7.38;89.54
49827;BME280;35715;51.570;6.036;2023-02-13T03:28:51;103547.88;;;7.34;88.80
49827;BME280;35715;51.570;6.036;2023-02-13T03:31:47;103543.09;;;7.29;88.86
49827;BME280;35715;51.570;6.036;2023-02-13T03:34:22;103547.44;;;7.23;88.36
49827;BME280;35715;51.570;6.036;2023-02-13T03:36:55;103545.22;;;7.12;87.57
49827;BME280;35715;51.570;6.036;2023-02-13T03:39:52;103545.16;;;7.05;87.56
49827;BME280;35715;51.570;6.036;2023-02-13T03:42:22;103550.63;;;7.01;87.26
49827;BME280;35715;51.570;6.036;2023-02-13T03:44:52;103553.91;;;6.92;86.44
49827;BME280;35715;51.570;6.036;2023-02-13T03:47:39;103555.69;;;6.86;86.78
49827;BME280;35715;51.570;6.036;2023-02-13T03:50:07;103553.44;;;6.82;86.49
49827;BME280;35715;51.570;6.036;2023-02-13T03:55:18;103553.00;;;6.72;85.72
49827;BME280;35715;51.570;6.036;2023-02-13T03:58:19;103558.09;;;6.65;85.44
49827;BME280;35715;51.570;6.036;2023-02-13T04:01:05;103560.28;;;6.62;85.47
49827;BME280;35715;51.570;6.036;2023-02-13T04:06:23;103561.53;;;6.58;85.47
49827;BME280;35715;51.570;6.036;2023-02-13T04:08:51;103561.66;;;6.52;85.29
49827;BME280;35715;51.570;6.036;2023-02-13T04:11:34;103559.25;;;6.47;85.53
49827;BME280;35715;51.570;6.036;2023-02-13T04:14:12;103561.22;;;6.42;85.40
49827;BME280;35715;51.570;6.036;2023-02-13T04:16:45;103563.41;;;6.39;85.72
49827;BME280;35715;51.570;6.036;2023-02-13T04:19:12;103568.72;;;6.41;86.48
49827;BME280;35715;51.570;6.036;2023-02-13T04:21:38;103557.53;;;6.40;86.75
49827;BME280;35715;51.570;6.036;2023-02-13T04:24:04;103560.03;;;6.33;85.81
49827;BME280;35715;51.570;6.036;2023-02-13T04:26:33;103554.28;;;6.28;85.58
49827;BME280;35715;51.570;6.036;2023-02-13T04:28:59;103553.69;;;6.24;85.91
49827;BME280;35715;51.570;6.036;2023-02-13T04:31:24;103564.69;;;6.22;86.02
49827;BME280;35715;51.570;6.036;2023-02-13T04:33:49;103562.66;;;6.20;86.07
49827;BME280;35715;51.570;6.036;2023-02-13T04:36:14;103562.06;;;6.15;85.82
49827;BME280;35715;51.570;6.036;2023-02-13T04:38:40;103557.25;;;6.11;85.43
49827;BME280;35715;51.570;6.036;2023-02-13T04:41:05;103555.75;;;6.06;85.58
49827;BME280;35715;51.570;6.036;2023-02-13T04:43:30;103551.34;;;6.05;85.99
49827;BME280;35715;51.570;6.036;2023-02-13T04:45:58;103549.47;;;6.04;85.80
49827;BME280;35715;51.570;6.036;2023-02-13T04:48:23;103553.00;;;6.04;86.08
49827;BME280;35715;51.570;6.036;2023-02-13T04:50:48;103552.59;;;6.01;85.75
49827;BME280;35715;51.570;6.036;2023-02-13T04:53:13;103549.84;;;6.00;86.21
49827;BME280;35715;51.570;6.036;2023-02-13T04:55:47;103543.97;;;6.01;85.74
49827;BME280;35715;51.570;6.036;2023-02-13T04:58:13;103546.53;;;6.01;85.77
49827;BME280;35715;51.570;6.036;2023-02-13T05:00:38;103546.31;;;5.99;85.58
49827;BME280;35715;51.570;6.036;2023-02-13T05:03:06;103548.25;;;5.95;85.24
49827;BME280;35715;51.570;6.036;2023-02-13T05:05:32;103546.03;;;5.91;85.40
49827;BME280;35715;51.570;6.036;2023-02-13T05:07:58;103538.88;;;5.88;85.04
49827;BME280;35715;51.570;6.036;2023-02-13T05:10:23;103541.03;;;5.85;85.39
49827;BME280;35715;51.570;6.036;2023-02-13T05:12:48;103540.25;;;5.79;85.19
49827;BME280;35715;51.570;6.036;2023-02-13T05:15:13;103542.41;;;5.76;85.10
49827;BME280;35715;51.570;6.036;2023-02-13T05:20:08;103542.63;;;5.64;84.79
49827;BME280;35715;51.570;6.036;2023-02-13T05:22:33;103547.53;;;5.63;84.91
49827;BME280;35715;51.570;6.036;2023-02-13T05:25:18;103551.75;;;5.62;85.13
49827;BME280;35715;51.570;6.036;2023-02-13T05:27:44;103545.72;;;5.62;85.09
49827;BME280;35715;51.570;6.036;2023-02-13T05:30:09;103551.56;;;5.61;85.00
49827;BME280;35715;51.570;6.036;2023-02-13T05:32:35;103547.47;;;5.56;84.88
49827;BME280;35715;51.570;6.036;2023-02-13T05:35:00;103540.31;;;5.53;84.74
49827;BME280;35715;51.570;6.036;2023-02-13T05:37:27;103544.28;;;5.51;84.64
49827;BME280;35715;51.570;6.036;2023-02-13T05:39:52;103546.66;;;5.49;84.58
49827;BME280;35715;51.570;6.036;2023-02-13T05:42:18;103543.28;;;5.43;84.27
49827;BME280;35715;51.570;6.036;2023-02-13T05:44:43;103538.69;;;5.41;84.35
49827;BME280;35715;51.570;6.036;2023-02-13T05:47:10;103543.09;;;5.42;84.51
49827;BME280;35715;51.570;6.036;2023-02-13T05:49:35;103526.00;;;5.35;84.48
49827;BME280;35715;51.570;6.036;2023-02-13T05:52:01;103528.56;;;5.35;84.56
49827;BME280;35715;51.570;6.036;2023-02-13T05:54:26;103522.84;;;5.30;84.66
49827;BME280;35715;51.570;6.036;2023-02-13T05:56:54;103526.09;;;5.29;84.66
49827;BME280;35715;51.570;6.036;2023-02-13T05:59:19;103522.22;;;5.26;84.71
49827;BME280;35715;51.570;6.036;2023-02-13T06:01:44;103530.22;;;5.22;85.00
49827;BME280;35715;51.570;6.036;2023-02-13T06:04:10;103531.88;;;5.21;85.27
49827;BME280;35715;51.570;6.036;2023-02-13T06:06:36;103526.19;;;5.24;85.83
49827;BME280;35715;51.570;6.036;2023-02-13T06:09:01;103528.25;;;5.26;85.56
49827;BME280;35715;51.570;6.036;2023-02-13T06:11:26;103532.88;;;5.29;85.41
49827;BME280;35715;51.570;6.036;2023-02-13T06:13:52;103528.38;;;5.21;85.22
49827;BME280;35715;51.570;6.036;2023-02-13T06:16:20;103526.34;;;5.18;85.62
49827;BME280;35715;51.570;6.036;2023-02-13T06:18:46;103529.19;;;5.14;85.72
49827;BME280;35715;51.570;6.036;2023-02-13T06:21:12;103527.56;;;5.14;85.58
49827;BME280;35715;51.570;6.036;2023-02-13T06:23:37;103535.75;;;5.12;85.42
49827;BME280;35715;51.570;6.036;2023-02-13T06:26:05;103530.03;;;5.07;86.06
49827;BME280;35715;51.570;6.036;2023-02-13T06:28:30;103537.19;;;5.10;86.21
49827;BME280;35715;51.570;6.036;2023-02-13T06:30:56;103530.44;;;5.10;85.77
49827;BME280;35715;51.570;6.036;2023-02-13T06:33:21;103538.13;;;5.10;85.64
49827;BME280;35715;51.570;6.036;2023-02-13T06:35:51;103533.72;;;5.09;85.75
49827;BME280;35715;51.570;6.036;2023-02-13T06:38:16;103518.84;;;5.07;85.62
49827;BME280;35715;51.570;6.036;2023-02-13T06:40:43;103528.97;;;5.00;85.58
49827;BME280;35715;51.570;6.036;2023-02-13T06:43:08;103528.97;;;5.00;85.87
49827;BME280;35715;51.570;6.036;2023-02-13T06:45:34;103535.03;;;5.00;85.69
49827;BME280;35715;51.570;6.036;2023-02-13T06:47:59;103534.84;;;4.98;85.80
49827;BME280;35715;51.570;6.036;2023-02-13T06:50:24;103534.22;;;4.94;85.75
49827;BME280;35715;51.570;6.036;2023-02-13T06:52:50;103537.69;;;4.94;85.43
49827;BME280;35715;51.570;6.036;2023-02-13T06:55:16;103534.44;;;4.95;85.84
49827;BME280;35715;51.570;6.036;2023-02-13T06:57:42;103535.34;;;4.96;85.80
49827;BME280;35715;51.570;6.036;2023-02-13T07:00:08;103539.75;;;4.97;85.41
49827;BME280;35715;51.570;6.036;2023-02-13T07:02:37;103548.13;;;4.96;85.05
49827;BME280;35715;51.570;6.036;2023-02-13T07:05:02;103556.50;;;4.95;84.76
49827;BME280;35715;51.570;6.036;2023-02-13T07:07:31;103551.00;;;4.92;84.41
49827;BME280;35715;51.570;6.036;2023-02-13T07:09:56;103550.56;;;4.89;84.68
49827;BME280;35715;51.570;6.036;2023-02-13T07:12:21;103549.88;;;4.90;85.10
49827;BME280;35715;51.570;6.036;2023-02-13T07:14:46;103556.31;;;4.93;85.30
49827;BME280;35715;51.570;6.036;2023-02-13T07:17:12;103560.94;;;4.96;84.85
49827;BME280;35715;51.570;6.036;2023-02-13T07:19:37;103559.06;;;4.95;84.77
49827;BME280;35715;51.570;6.036;2023-02-13T07:22:02;103567.91;;;4.97;84.81
49827;BME280;35715;51.570;6.036;2023-02-13T07:24:28;103566.03;;;4.96;84.36
49827;BME280;35715;51.570;6.036;2023-02-13T07:26:54;103564.94;;;4.94;84.26
49827;BME280;35715;51.570;6.036;2023-02-13T07:29:19;103562.56;;;4.95;84.43
49827;BME280;35715;51.570;6.036;2023-02-13T07:31:44;103569.31;;;4.95;84.59
49827;BME280;35715;51.570;6.036;2023-02-13T07:34:10;103579.94;;;4.98;84.82
49827;BME280;35715;51.570;6.036;2023-02-13T07:36:37;103571.97;;;5.02;85.12
49827;BME280;35715;51.570;6.036;2023-02-13T07:39:02;103582.34;;;5.09;85.22
49827;BME280;35715;51.570;6.036;2023-02-13T07:41:27;103584.78;;;5.15;85.50
49827;BME280;35715;51.570;6.036;2023-02-13T07:43:53;103583.56;;;5.19;85.34
49827;BME280;35715;51.570;6.036;2023-02-13T07:46:23;103580.28;;;5.20;85.02
49827;BME280;35715;51.570;6.036;2023-02-13T07:48:50;103574.63;;;5.22;85.37
49827;BME280;35715;51.570;6.036;2023-02-13T07:51:15;103583.47;;;5.24;85.35
49827;BME280;35715;51.570;6.036;2023-02-13T07:53:41;103587.84;;;5.25;85.87
49827;BME280;35715;51.570;6.036;2023-02-13T07:56:07;103580.59;;;5.28;85.61
49827;BME280;35715;51.570;6.036;2023-02-13T07:58:33;103580.66;;;5.36;85.88
49827;BME280;35715;51.570;6.036;2023-02-13T08:00:58;103573.31;;;5.44;86.29
49827;BME280;35715;51.570;6.036;2023-02-13T08:03:23;103576.38;;;5.55;86.81
49827;BME280;35715;51.570;6.036;2023-02-13T08:05:48;103582.50;;;5.62;86.89
49827;BME280;35715;51.570;6.036;2023-02-13T08:08:14;103583.28;;;5.68;87.34
49827;BME280;35715;51.570;6.036;2023-02-13T08:10:39;103584.59;;;5.72;88.37
49827;BME280;35715;51.570;6.036;2023-02-13T08:13:23;103582.44;;;5.75;89.04
49827;BME280;35715;51.570;6.036;2023-02-13T08:15:51;103588.91;;;5.79;88.98
49827;BME280;35715;51.570;6.036;2023-02-13T08:18:16;103585.91;;;5.89;88.75
49827;BME280;35715;51.570;6.036;2023-02-13T08:20:42;103577.38;;;5.95;89.34
49827;BME280;35715;51.570;6.036;2023-02-13T08:23:08;103579.44;;;5.98;90.72
49827;BME280;35715;51.570;6.036;2023-02-13T08:28:03;103588.66;;;6.03;92.25
49827;BME280;35715;51.570;6.036;2023-02-13T08:30:29;103590.56;;;6.11;92.69
49827;BME280;35715;51.570;6.036;2023-02-13T08:32:54;103595.06;;;6.19;94.04
49827;BME280;35715;51.570;6.036;2023-02-13T08:35:19;103592.16;;;6.24;95.56
49827;BME280;35715;51.570;6.036;2023-02-13T08:37:44;103592.56;;;6.27;96.31
49827;BME280;35715;51.570;6.036;2023-02-13T08:40:10;103593.97;;;6.37;95.88
49827;BME280;35715;51.570;6.036;2023-02-13T08:42:36;103592.59;;;6.47;96.21
49827;BME280;35715;51.570;6.036;2023-02-13T08:45:01;103599.41;;;6.53;95.89
49827;BME280;35715;51.570;6.036;2023-02-13T08:47:27;103599.47;;;6.61;95.46
49827;BME280;35715;51.570;6.036;2023-02-13T08:49:52;103599.94;;;6.71;95.64
49827;BME280;35715;51.570;6.036;2023-02-13T08:52:18;103596.69;;;6.79;95.98
49827;BME280;35715;51.570;6.036;2023-02-13T08:54:43;103597.28;;;6.84;96.60
49827;BME280;35715;51.570;6.036;2023-02-13T08:57:09;103599.72;;;6.89;95.86
49827;BME280;35715;51.570;6.036;2023-02-13T08:59:34;103599.00;;;6.98;95.30
49827;BME280;35715;51.570;6.036;2023-02-13T09:02:00;103593.56;;;7.02;95.46
49827;BME280;35715;51.570;6.036;2023-02-13T09:04:25;103596.50;;;7.05;95.74
49827;BME280;35715;51.570;6.036;2023-02-13T09:06:51;103601.13;;;7.07;95.96
49827;BME280;35715;51.570;6.036;2023-02-13T09:09:17;103604.84;;;7.17;96.31
49827;BME280;35715;51.570;6.036;2023-02-13T09:11:42;103606.13;;;7.20;96.40
49827;BME280;35715;51.570;6.036;2023-02-13T09:14:07;103600.66;;;7.24;96.38
49827;BME280;35715;51.570;6.036;2023-02-13T09:16:36;103597.56;;;7.27;96.52
49827;BME280;35715;51.570;6.036;2023-02-13T09:19:01;103603.28;;;7.32;96.94
49827;BME280;35715;51.570;6.036;2023-02-13T09:21:26;103605.47;;;7.36;96.87
49827;BME280;35715;51.570;6.036;2023-02-13T09:23:51;103599.63;;;7.37;97.36
49827;BME280;35715;51.570;6.036;2023-02-13T09:26:20;103606.09;;;7.40;96.90
49827;BME280;35715;51.570;6.036;2023-02-13T09:28:45;103599.16;;;7.46;96.71
49827;BME280;35715;51.570;6.036;2023-02-13T09:31:11;103600.25;;;7.49;96.32
49827;BME280;35715;51.570;6.036;2023-02-13T09:33:39;103612.75;;;7.60;96.23
49827;BME280;35715;51.570;6.036;2023-02-13T09:36:05;103608.00;;;7.63;95.67
49827;BME280;35715;51.570;6.036;2023-02-13T09:38:30;103602.72;;;7.69;95.00
49827;BME280;35715;51.570;6.036;2023-02-13T09:40:56;103606.97;;;7.75;94.91
49827;BME280;35715;51.570;6.036;2023-02-13T09:45:49;103604.78;;;7.86;94.55
49827;BME280;35715;51.570;6.036;2023-02-13T09:48:24;103602.41;;;7.87;94.37
49827;BME280;35715;51.570;6.036;2023-02-13T09:50:52;103598.19;;;7.88;93.37
49827;BME280;35715;51.570;6.036;2023-02-13T09:53:21;103603.69;;;8.54;92.38
49827;BME280;35715;51.570;6.036;2023-02-13T10:01:02;103588.78;;;10.75;78.46
49827;BME280;35715;51.570;6.036;2023-02-13T10:06:35;103594.41;;;11.67;72.16
49827;BME280;35715;51.570;6.036;2023-02-13T10:18:54;103599.56;;;12.90;64.82
49827;BME280;35715;51.570;6.036;2023-02-13T10:21:22;103586.91;;;12.93;65.38
49827;BME280;35715;51.570;6.036;2023-02-13T10:26:51;103583.34;;;13.35;65.42
49827;BME280;35715;51.570;6.036;2023-02-13T10:32:02;103587.13;;;14.17;60.69
49827;BME280;35715;51.570;6.036;2023-02-13T10:34:30;103583.22;;;14.49;59.98
49827;BME280;35715;51.570;6.036;2023-02-13T10:37:33;103589.66;;;14.80;57.22
49827;BME280;35715;51.570;6.036;2023-02-13T10:39:51;103583.66;;;15.37;56.74
49827;BME280;35715;51.570;6.036;2023-02-13T11:02:25;103569.13;;;18.12;46.36
49827;BME280;35715;51.570;6.036;2023-02-13T11:04:51;103561.59;;;18.71;47.81
49827;BME280;35715;51.570;6.036;2023-02-13T11:07:18;103554.94;;;19.21;46.04
49827;BME280;35715;51.570;6.036;2023-02-13T11:09:46;103553.22;;;19.21;45.28
49827;BME280;35715;51.570;6.036;2023-02-13T11:12:22;103553.72;;;19.27;45.58
49827;BME280;35715;51.570;6.036;2023-02-13T11:14:58;103549.44;;;19.06;44.48
49827;BME280;35715;51.570;6.036;2023-02-13T11:17:24;103552.56;;;19.36;44.91
49827;BME280;35715;51.570;6.036;2023-02-13T11:19:54;103549.47;;;19.65;42.48
49827;BME280;35715;51.570;6.036;2023-02-13T11:22:29;103547.41;;;19.73;43.04
49827;BME280;35715;51.570;6.036;2023-02-13T11:24:55;103540.69;;;20.12;41.40
49827;BME280;35715;51.570;6.036;2023-02-13T11:27:27;103534.28;;;20.45;42.34
49827;BME280;35715;51.570;6.036;2023-02-13T11:29:55;103536.50;;;20.64;42.38
49827;BME280;35715;51.570;6.036;2023-02-13T11:32:25;103521.88;;;20.17;41.78
49827;BME280;35715;51.570;6.036;2023-02-13T11:34:50;103523.44;;;21.30;41.02
49827;BME280;35715;51.570;6.036;2023-02-13T11:37:36;103525.50;;;21.47;40.89
49827;BME280;35715;51.570;6.036;2023-02-13T11:40:03;103509.44;;;21.42;38.05
49827;BME280;35715;51.570;6.036;2023-02-13T11:42:45;103516.59;;;20.80;40.13
49827;BME280;35715;51.570;6.036;2023-02-13T11:45:19;103511.34;;;20.29;40.45
49827;BME280;35715;51.570;6.036;2023-02-13T11:47:45;103512.50;;;20.97;40.15
49827;BME280;35715;51.570;6.036;2023-02-13T11:55:39;103508.75;;;20.93;39.94
49827;BME280;35715;51.570;6.036;2023-02-13T12:00:35;103499.25;;;20.95;38.74
49827;BME280;35715;51.570;6.036;2023-02-13T12:03:23;103501.13;;;21.09;38.48
49827;BME280;35715;51.570;6.036;2023-02-13T12:06:22;103496.84;;;20.98;39.78
49827;BME280;35715;51.570;6.036;2023-02-13T12:08:41;103492.34;;;21.09;40.04
49827;BME280;35715;51.570;6.036;2023-02-13T12:13:45;103488.50;;;21.44;39.76
49827;BME280;35715;51.570;6.036;2023-02-13T12:16:23;103485.16;;;21.87;39.29
49827;BME280;35715;51.570;6.036;2023-02-13T12:18:51;103491.84;;;21.68;39.20
49827;BME280;35715;51.570;6.036;2023-02-13T12:31:34;103483.75;;;21.38;39.32
49827;BME280;35715;51.570;6.036;2023-02-13T12:34:20;103469.72;;;21.24;37.95
49827;BME280;35715;51.570;6.036;2023-02-13T12:39:40;103462.94;;;21.41;39.77
49827;BME280;35715;51.570;6.036;2023-02-13T12:47:15;103460.63;;;21.73;40.37
49827;BME280;35715;51.570;6.036;2023-02-13T12:54:45;103473.13;;;21.10;40.07
49827;BME280;35715;51.570;6.036;2023-02-13T13:05:03;103452.34;;;19.62;42.16
49827;BME280;35715;51.570;6.036;2023-02-13T13:07:44;103446.91;;;19.00;42.60
49827;BME280;35715;51.570;6.036;2023-02-13T13:26:40;103437.47;;;18.44;45.44
49827;BME280;35715;51.570;6.036;2023-02-13T13:29:10;103427.53;;;18.06;45.89
49827;BME280;35715;51.570;6.036;2023-02-13T13:31:38;103425.44;;;17.90;46.49
49827;BME280;35715;51.570;6.036;2023-02-13T13:34:05;103418.47;;;17.68;46.83
49827;BME280;35715;51.570;6.036;2023-02-13T13:36:47;103425.78;;;17.62;46.99
49827;BME280;35715;51.570;6.036;2023-02-13T13:39:24;103420.81;;;17.43;47.24
49827;BME280;35715;51.570;6.036;2023-02-13T13:42:03;103420.75;;;17.11;47.77
49827;BME280;35715;51.570;6.036;2023-02-13T13:49:53;103417.69;;;16.63;48.92
49827;BME280;35715;51.570;6.036;2023-02-13T13:54:44;103406.63;;;16.45;49.82
49827;BME280;35715;51.570;6.036;2023-02-13T13:57:17;103409.25;;;16.35;50.47
49827;BME280;35715;51.570;6.036;2023-02-13T14:09:55;103399.59;;;16.34;50.88
49827;BME280;35715;51.570;6.036;2023-02-13T14:14:48;103398.78;;;16.04;51.12
49827;BME280;35715;51.570;6.036;2023-02-13T14:19:45;103399.44;;;15.91;51.50
49827;BME280;35715;51.570;6.036;2023-02-13T14:24:39;103395.50;;;15.86;52.16
49827;BME280;35715;51.570;6.036;2023-02-13T14:27:39;103389.44;;;15.77;52.94
49827;BME280;35715;51.570;6.036;2023-02-13T14:29:58;103395.78;;;15.60;53.67
49827;BME280;35715;51.570;6.036;2023-02-13T14:34:56;103392.81;;;15.36;53.92
49827;BME280;35715;51.570;6.036;2023-02-13T14:37:34;103397.66;;;15.13;54.86
49827;BME280;35715;51.570;6.036;2023-02-13T14:40:26;103388.72;;;15.00;54.67
49827;BME280;35715;51.570;6.036;2023-02-13T14:42:54;103382.81;;;14.82;55.90
49827;BME280;35715;51.570;6.036;2023-02-13T14:45:25;103376.47;;;14.70;56.23
49827;BME280;35715;51.570;6.036;2023-02-13T14:47:53;103377.00;;;14.57;56.25
49827;BME280;35715;51.570;6.036;2023-02-13T14:50:31;103377.47;;;14.53;56.49
49827;BME280;35715;51.570;6.036;2023-02-13T14:52:57;103375.44;;;14.59;56.40
49827;BME280;35715;51.570;6.036;2023-02-13T14:55:44;103376.84;;;14.55;56.59
49827;BME280;35715;51.570;6.036;2023-02-13T15:01:04;103379.28;;;14.63;56.88
49827;BME280;35715;51.570;6.036;2023-02-13T15:03:40;103374.41;;;14.57;56.57
49827;BME280;35715;51.570;6.036;2023-02-13T15:06:23;103376.38;;;14.60;56.45
49827;BME280;35715;51.570;6.036;2023-02-13T15:08:50;103377.59;;;14.63;56.11
49827;BME280;35715;51.570;6.036;2023-02-13T15:11:35;103378.44;;;14.72;55.78
49827;BME280;35715;51.570;6.036;2023-02-13T15:16:42;103375.84;;;14.72;55.87
49827;BME280;35715;51.570;6.036;2023-02-13T15:19:13;103379.66;;;14.76;55.59
49827;BME280;35715;51.570;6.036;2023-02-13T15:21:44;103374.94;;;14.72;56.01
49827;BME280;35715;51.570;6.036;2023-02-13T15:24:11;103377.13;;;14.67;55.82
49827;BME280;35715;51.570;6.036;2023-02-13T15:26:48;103373.50;;;14.76;56.26
49827;BME280;35715;51.570;6.036;2023-02-13T15:29:15;103378.16;;;14.69;55.65
49827;BME280;35715;51.570;6.036;2023-02-13T15:31:40;103379.28;;;14.82;55.66
49827;BME280;35715;51.570;6.036;2023-02-13T15:34:25;103375.91;;;14.83;55.22
49827;BME280;35715;51.570;6.036;2023-02-13T15:36:57;103373.44;;;14.65;55.58
49827;BME280;35715;51.570;6.036;2023-02-13T15:39:24;103371.94;;;14.59;56.20
49827;BME280;35715;51.570;6.036;2023-02-13T15:41:51;103372.69;;;14.58;56.33
49827;BME280;35715;51.570;6.036;2023-02-13T15:44:36;103362.16;;;14.56;56.47
49827;BME280;35715;51.570;6.036;2023-02-13T15:50:01;103356.34;;;14.59;56.13
49827;BME280;35715;51.570;6.036;2023-02-13T15:54:57;103349.09;;;14.46;56.46
49827;BME280;35715;51.570;6.036;2023-02-13T15:59:56;103352.56;;;14.55;56.42
49827;BME280;35715;51.570;6.036;2023-02-13T16:02:24;103358.38;;;14.52;56.31
49827;BME280;35715;51.570;6.036;2023-02-13T16:04:53;103351.34;;;14.51;56.62
49827;BME280;35715;51.570;6.036;2023-02-13T16:07:18;103352.44;;;14.53;56.80
49827;BME280;35715;51.570;6.036;2023-02-13T16:09:44;103350.31;;;14.49;56.59
49827;BME280;35715;51.570;6.036;2023-02-13T16:14:42;103353.53;;;14.47;56.85
49827;BME280;35715;51.570;6.036;2023-02-13T16:17:22;103360.28;;;14.45;56.63
49827;BME280;35715;51.570;6.036;2023-02-13T16:24:43;103357.03;;;14.28;57.43
49827;BME280;35715;51.570;6.036;2023-02-13T16:27:15;103358.44;;;14.25;57.43
49827;BME280;35715;51.570;6.036;2023-02-13T16:29:52;103350.56;;;14.14;57.87
49827;BME280;35715;51.570;6.036;2023-02-13T16:32:24;103353.78;;;14.12;57.55
49827;BME280;35715;51.570;6.036;2023-02-13T16:34:50;103351.34;;;14.05;57.91
49827;BME280;35715;51.570;6.036;2023-02-13T16:37:30;103347.63;;;13.92;58.19
49827;BME280;35715;51.570;6.036;2023-02-13T16:39:56;103349.78;;;13.88;58.22